createdAt,value
2023-03-22T00:00:19.598Z,6.15
2023-03-22T00:01:15.040Z,6.21
2023-03-22T00:02:06.883Z,6.44
2023-03-22T00:02:58.403Z,6.06
2023-03-22T00:03:51.722Z,5.98
2023-03-22T00:04:43.453Z,6.07
2023-03-22T00:05:34.950Z,6.78
2023-03-22T00:06:26.730Z,5.96
2023-03-22T00:07:18.402Z,6.15
2023-03-22T00:08:10.945Z,5.96
2023-03-22T00:09:02.708Z,5.70
2023-03-22T00:09:54.127Z,5.92
2023-03-22T00:10:48.098Z,6.82
2023-03-22T00:11:39.618Z,6.25
2023-03-22T00:12:31.738Z,6.05
2023-03-22T00:13:23.202Z,6.29
2023-03-22T00:14:14.698Z,6.21
2023-03-22T00:15:07.584Z,6.35
2023-03-22T00:15:59.969Z,6.21
2023-03-22T00:16:51.472Z,6.23
2023-03-22T00:17:44.816Z,6.50
2023-03-22T00:18:37.098Z,6.63
2023-03-22T00:19:33.814Z,6.52
2023-03-22T00:20:37.269Z,6.63
2023-03-22T00:21:29.122Z,6.60
2023-03-22T00:22:20.789Z,6.56
2023-03-22T00:23:12.449Z,6.42
2023-03-22T00:24:04.131Z,6.76
2023-03-22T00:24:55.597Z,7.07
2023-03-22T00:25:48.060Z,7.03
2023-03-22T00:26:39.553Z,6.52
2023-03-22T00:27:31.897Z,6.71
2023-03-22T00:28:24.348Z,6.87
2023-03-22T00:29:17.417Z,6.82
2023-03-22T00:30:11.128Z,6.67
2023-03-22T00:31:03.713Z,6.37
2023-03-22T00:31:56.253Z,6.20
2023-03-22T00:32:47.862Z,6.36
2023-03-22T00:33:39.611Z,7.09
2023-03-22T00:34:32.928Z,7.21
2023-03-22T00:35:24.841Z,7.72
2023-03-22T00:36:16.744Z,7.37
2023-03-22T00:37:08.305Z,7.53
2023-03-22T00:38:13.924Z,7.70
2023-03-22T00:39:05.395Z,7.92
2023-03-22T00:39:57.052Z,7.88
2023-03-22T00:40:49.053Z,7.54
2023-03-22T00:41:42.219Z,7.78
2023-03-22T00:42:33.769Z,7.78
2023-03-22T00:43:25.579Z,7.23
2023-03-22T00:44:18.421Z,7.29
2023-03-22T00:45:11.618Z,7.52
2023-03-22T00:46:03.146Z,7.88
2023-03-22T00:46:54.768Z,7.86
2023-03-22T00:47:46.545Z,7.88
2023-03-22T00:48:38.460Z,7.76
2023-03-22T00:49:31.472Z,8.15
2023-03-22T00:50:22.991Z,8.05
2023-03-22T00:51:15.623Z,7.82
2023-03-22T00:52:07.526Z,7.89
2023-03-22T00:52:59.171Z,7.86
2023-03-22T00:53:52.234Z,7.79
2023-03-22T00:54:44.217Z,8.69
2023-03-22T00:55:38.059Z,8.55
2023-03-22T00:56:30.193Z,8.56
2023-03-22T00:57:28.164Z,8.39
2023-03-22T00:58:21.150Z,7.56
2023-03-22T00:59:13.972Z,8.29
2023-03-22T01:00:16.126Z,7.77
2023-03-22T01:01:14.044Z,8.19
2023-03-22T01:02:06.724Z,8.15
2023-03-22T01:02:59.920Z,8.36
2023-03-22T01:03:52.521Z,8.15
2023-03-22T01:04:46.519Z,7.98
2023-03-22T01:05:38.197Z,7.60
2023-03-22T01:06:29.642Z,7.27
2023-03-22T01:07:24.169Z,7.11
2023-03-22T01:08:16.571Z,7.16
2023-03-22T01:09:08.034Z,7.06
2023-03-22T01:09:59.541Z,7.47
2023-03-22T01:10:51.088Z,8.02
2023-03-22T01:11:43.627Z,7.24
2023-03-22T01:12:35.183Z,7.79
2023-03-22T01:13:27.065Z,7.73
2023-03-22T01:14:19.643Z,7.98
2023-03-22T01:15:11.474Z,7.66
2023-03-22T01:16:04.501Z,7.96
2023-03-22T01:16:57.433Z,8.06
2023-03-22T01:17:49.496Z,7.41
2023-03-22T01:18:41.266Z,8.32
2023-03-22T01:19:36.022Z,7.75
2023-03-22T01:20:28.421Z,7.85
2023-03-22T01:21:20.113Z,7.85
2023-03-22T01:22:11.958Z,7.88
2023-03-22T01:23:04.080Z,8.34
2023-03-22T01:23:55.531Z,8.20
2023-03-22T01:24:48.869Z,7.70
2023-03-22T01:25:40.826Z,7.93
2023-03-22T01:26:32.623Z,7.92
2023-03-22T01:27:24.351Z,7.90
2023-03-22T01:28:16.149Z,8.09
2023-03-22T01:29:07.630Z,8.13
2023-03-22T01:29:59.593Z,7.72
2023-03-22T01:30:51.450Z,7.78
2023-03-22T01:31:43.628Z,8.25
2023-03-22T01:32:37.930Z,7.99
2023-03-22T01:33:30.513Z,7.52
2023-03-22T01:34:22.407Z,7.91
2023-03-22T01:35:14.550Z,8.21
2023-03-22T01:36:07.988Z,7.88
2023-03-22T01:37:00.336Z,7.98
2023-03-22T01:37:52.244Z,8.17
2023-03-22T01:38:44.684Z,8.38
2023-03-22T01:39:36.284Z,8.34
2023-03-22T01:40:32.072Z,7.77
2023-03-22T01:41:26.283Z,8.10
2023-03-22T01:42:18.297Z,8.06
2023-03-22T01:43:15.067Z,8.46
2023-03-22T01:44:19.720Z,8.30
2023-03-22T01:45:14.767Z,8.39
2023-03-22T01:46:08.357Z,8.41
2023-03-22T01:46:59.872Z,8.60
2023-03-22T01:47:59.352Z,8.65
2023-03-22T01:48:51.068Z,8.10
2023-03-22T01:49:43.306Z,8.05
2023-03-22T01:50:38.867Z,8.75
2023-03-22T01:51:31.125Z,8.56
2023-03-22T01:52:45.672Z,8.25
2023-03-22T01:53:52.337Z,8.18
2023-03-22T01:54:50.276Z,8.26
2023-03-22T01:55:53.610Z,9.00
2023-03-22T01:56:51.270Z,8.55
2023-03-22T01:57:54.984Z,8.10
2023-03-22T01:58:57.651Z,8.35
2023-03-22T01:59:58.272Z,8.20
2023-03-22T02:01:07.509Z,7.89
2023-03-22T02:02:19.598Z,8.35
2023-03-22T02:03:29.974Z,7.82
2023-03-22T02:04:24.936Z,8.16
2023-03-22T02:05:17.196Z,8.24
2023-03-22T02:06:08.836Z,7.98
2023-03-22T02:07:10.092Z,8.26
2023-03-22T02:08:04.837Z,8.06
2023-03-22T02:09:21.856Z,8.63
2023-03-22T02:10:21.150Z,9.25
2023-03-22T02:11:34.182Z,9.31
2023-03-22T02:13:00.565Z,8.40
2023-03-22T02:14:27.304Z,8.06
2023-03-22T02:15:35.527Z,8.77
2023-03-22T02:17:11.890Z,8.78
2023-03-22T02:18:48.748Z,7.94
2023-03-22T02:20:24.700Z,8.45
2023-03-22T02:21:22.980Z,8.14
2023-03-22T02:22:38.823Z,8.34
2023-03-22T02:23:33.209Z,8.12
2023-03-22T02:24:46.232Z,7.85
2023-03-22T02:26:11.451Z,7.76
2023-03-22T02:27:44.168Z,8.59
2023-03-22T02:28:55.974Z,8.15
2023-03-22T02:30:05.736Z,7.93
2023-03-22T02:31:12.382Z,8.52
2023-03-22T02:32:20.488Z,8.52
2023-03-22T02:33:41.750Z,7.86
2023-03-22T02:34:42.436Z,8.44
2023-03-22T02:35:41.485Z,9.00
2023-03-22T02:37:07.397Z,7.94
2023-03-22T02:38:01.464Z,8.64
2023-03-22T02:39:22.013Z,8.67
2023-03-22T02:40:22.768Z,8.59
2023-03-22T02:41:39.988Z,8.04
2023-03-22T02:43:04.133Z,7.95
2023-03-22T02:44:10.244Z,8.65
2023-03-22T02:45:21.312Z,7.76
2023-03-22T02:46:26.089Z,8.33
2023-03-22T02:47:49.970Z,8.79
2023-03-22T02:49:00.547Z,8.64
2023-03-22T02:50:14.254Z,8.67
2023-03-22T02:51:36.193Z,8.84
2023-03-22T02:52:44.536Z,8.15
2023-03-22T02:53:49.490Z,8.81
2023-03-22T02:54:49.908Z,9.03
2023-03-22T02:55:51.867Z,8.86
2023-03-22T02:56:53.518Z,8.37
2023-03-22T02:57:55.177Z,8.70
2023-03-22T02:58:53.207Z,8.46
2023-03-22T02:59:47.397Z,8.94
2023-03-22T03:00:41.763Z,9.16
2023-03-22T03:02:04.776Z,9.05
2023-03-22T03:03:11.235Z,8.86
2023-03-22T03:04:09.577Z,8.47
2023-03-22T03:05:02.917Z,8.67
2023-03-22T03:05:59.108Z,8.87
2023-03-22T03:06:55.335Z,9.43
2023-03-22T03:07:54.292Z,8.44
2023-03-22T03:08:53.318Z,9.10
2023-03-22T03:09:45.862Z,9.56
2023-03-22T03:10:41.574Z,9.16
2023-03-22T03:11:33.961Z,8.72
2023-03-22T03:12:28.138Z,8.57
2023-03-22T03:13:21.514Z,8.42
2023-03-22T03:14:26.815Z,9.29
2023-03-22T03:15:21.491Z,9.61
2023-03-22T03:16:17.690Z,9.26
2023-03-22T03:17:37.196Z,9.62
2023-03-22T03:18:50.919Z,8.83
2023-03-22T03:20:02.674Z,8.72
2023-03-22T03:20:57.263Z,9.70
2023-03-22T03:22:08.023Z,9.24
2023-03-22T03:23:13.810Z,8.81
2023-03-22T03:24:33.358Z,9.31
2023-03-22T03:25:43.382Z,8.76
2023-03-22T03:26:56.051Z,8.96
2023-03-22T03:27:59.247Z,8.87
2023-03-22T03:28:59.880Z,9.30
2023-03-22T03:30:06.661Z,8.95
2023-03-22T03:31:09.405Z,8.98
2023-03-22T03:32:21.514Z,9.16
2023-03-22T03:33:20.444Z,9.08
2023-03-22T03:34:33.779Z,8.68
2023-03-22T03:35:37.855Z,9.12
2023-03-22T03:36:34.742Z,9.05
2023-03-22T03:37:47.129Z,9.19
2023-03-22T03:38:45.954Z,9.00
2023-03-22T03:39:44.855Z,9.55
2023-03-22T03:40:44.595Z,9.39
2023-03-22T03:41:37.704Z,9.27
2023-03-22T03:42:31.603Z,9.46
2023-03-22T03:43:25.565Z,8.85
2023-03-22T03:44:19.448Z,9.22
2023-03-22T03:45:12.170Z,9.06
2023-03-22T03:46:04.069Z,8.73
2023-03-22T03:46:56.318Z,8.47
2023-03-22T03:47:56.753Z,8.68
2023-03-22T03:48:51.447Z,9.47
2023-03-22T03:49:43.210Z,9.55
2023-03-22T03:50:35.975Z,9.23
2023-03-22T03:51:28.168Z,8.78
2023-03-22T03:52:19.680Z,9.55
2023-03-22T03:53:11.194Z,9.48
2023-03-22T03:54:03.036Z,9.43
2023-03-22T03:54:55.058Z,9.27
2023-03-22T03:55:52.784Z,9.79
2023-03-22T03:56:47.679Z,9.43
2023-03-22T03:57:39.272Z,9.30
2023-03-22T03:58:30.840Z,8.91
2023-03-22T03:59:22.341Z,9.23
2023-03-22T04:00:17.954Z,9.56
2023-03-22T04:01:29.622Z,9.34
2023-03-22T04:02:34.182Z,8.98
2023-03-22T04:03:26.218Z,9.69
2023-03-22T04:04:29.178Z,9.43
2023-03-22T04:05:24.223Z,9.42
2023-03-22T04:06:15.917Z,9.60
2023-03-22T04:07:12.205Z,9.38
2023-03-22T04:08:04.830Z,9.33
2023-03-22T04:08:57.935Z,8.95
2023-03-22T04:09:54.572Z,9.42
2023-03-22T04:10:54.666Z,9.47
2023-03-22T04:11:46.771Z,9.86
2023-03-22T07:45:20.390Z,7.39
2023-03-22T07:46:31.920Z,7.20
2023-03-22T07:48:01.938Z,6.17
2023-03-22T07:49:32.345Z,5.76
2023-03-22T07:50:32.017Z,5.27
2023-03-22T07:51:25.726Z,4.86
2023-03-22T07:52:17.596Z,4.88
2023-03-22T07:53:09.744Z,5.10
2023-03-22T07:54:01.949Z,4.50
2023-03-22T07:54:54.420Z,4.65
2023-03-22T07:55:47.205Z,4.63
2023-03-22T07:56:39.175Z,4.67
2023-03-22T07:57:30.743Z,4.91
2023-03-22T07:58:25.156Z,4.54
2023-03-22T07:59:17.204Z,4.30
2023-03-22T08:00:10.510Z,4.16
2023-03-22T08:01:11.512Z,3.90
2023-03-22T08:02:20.648Z,4.01
2023-03-22T08:03:16.279Z,4.02
2023-03-22T08:04:22.427Z,3.73
2023-03-22T08:05:23.945Z,4.34
2023-03-22T08:06:22.913Z,4.06
2023-03-22T08:07:15.780Z,3.70
2023-03-22T08:08:07.369Z,3.82
2023-03-22T08:08:59.562Z,3.87
2023-03-22T08:09:51.713Z,3.56
2023-03-22T08:10:48.959Z,3.95
2023-03-22T08:11:40.562Z,3.71
2023-03-22T08:12:32.624Z,3.69
2023-03-22T08:13:32.966Z,3.53
2023-03-22T08:14:35.477Z,3.64
2023-03-22T08:15:28.524Z,3.87
2023-03-22T08:16:20.130Z,3.88
2023-03-22T08:17:11.992Z,3.55
2023-03-22T08:18:03.759Z,3.56
2023-03-22T08:19:03.012Z,3.46
2023-03-22T08:19:56.631Z,3.42
2023-03-22T08:21:00.169Z,3.40
2023-03-22T08:21:54.211Z,3.47
2023-03-22T08:23:12.045Z,3.73
2023-03-22T08:24:39.009Z,3.70
2023-03-22T08:25:33.856Z,3.59
2023-03-22T08:26:32.339Z,3.45
2023-03-22T08:27:35.039Z,3.76
2023-03-22T08:28:26.684Z,3.35
2023-03-22T08:29:19.069Z,3.68
2023-03-22T08:30:13.931Z,3.66
2023-03-22T08:31:15.345Z,3.34
2023-03-22T08:32:08.507Z,3.52
2023-03-22T08:33:00.111Z,3.34
2023-03-22T08:33:54.168Z,3.45
2023-03-22T08:34:46.610Z,3.24
2023-03-22T08:35:38.962Z,3.36
2023-03-22T08:36:31.073Z,2.89
2023-03-22T08:37:28.022Z,2.90
2023-03-22T08:38:19.589Z,2.66
2023-03-22T08:39:16.630Z,2.67
2023-03-22T08:40:23.091Z,2.22
2023-03-22T08:41:18.962Z,2.17
2023-03-22T08:42:10.992Z,2.28
2023-03-22T08:43:05.993Z,1.96
2023-03-22T08:43:57.549Z,1.92
2023-03-22T08:44:50.990Z,1.93
2023-03-22T08:45:45.864Z,2.18
2023-03-22T08:46:40.934Z,2.05
2023-03-22T08:47:32.438Z,2.00
2023-03-22T08:48:29.338Z,1.93
2023-03-22T08:49:35.900Z,1.84
2023-03-22T08:50:35.904Z,1.89
2023-03-22T08:51:37.100Z,1.76
2023-03-22T08:52:54.607Z,1.91
2023-03-22T08:53:50.996Z,1.86
2023-03-22T08:55:17.387Z,1.90
2023-03-22T08:56:27.371Z,1.82
2023-03-22T08:57:37.696Z,1.76
2023-03-22T08:58:59.262Z,1.76
2023-03-22T09:00:27.584Z,1.63
2023-03-22T09:01:32.725Z,1.92
2023-03-22T09:02:28.210Z,1.75
2023-03-22T09:03:22.781Z,1.72
2023-03-22T09:04:14.536Z,1.76
2023-03-22T09:05:06.526Z,1.83
2023-03-22T09:05:58.622Z,1.67
2023-03-22T09:06:52.314Z,1.89
2023-03-22T09:07:43.944Z,1.76
2023-03-22T09:08:43.861Z,1.65
2023-03-22T09:09:38.842Z,1.98
2023-03-22T09:10:30.505Z,1.51
2023-03-22T09:11:22.843Z,1.75
2023-03-22T09:12:14.353Z,1.93
2023-03-22T09:13:05.991Z,1.75
2023-03-22T09:13:59.270Z,1.83
2023-03-22T09:14:51.324Z,1.68
2023-03-22T09:15:46.279Z,1.72
2023-03-22T09:16:47.311Z,1.75
2023-03-22T09:17:39.435Z,1.54
2023-03-22T09:18:31.241Z,1.63
2023-03-22T09:19:26.474Z,1.85
2023-03-22T09:20:18.284Z,1.58
2023-03-22T09:21:12.459Z,1.62
2023-03-22T09:22:21.206Z,1.59
2023-03-22T09:23:17.859Z,1.77
2023-03-22T09:24:09.629Z,1.66
2023-03-22T09:25:06.042Z,1.82
2023-03-22T09:26:00.430Z,1.85
2023-03-22T09:26:51.931Z,1.64
2023-03-22T09:27:44.043Z,1.44
2023-03-22T09:28:36.714Z,1.86
2023-03-22T09:29:29.913Z,1.66
2023-03-22T09:30:22.873Z,1.47
2023-03-22T09:31:14.682Z,1.58
2023-03-22T09:32:06.398Z,1.80
2023-03-22T09:33:00.365Z,1.71
2023-03-22T09:33:51.916Z,1.57
2023-03-22T09:34:44.460Z,1.58
2023-03-22T09:35:42.905Z,1.47
2023-03-22T09:36:37.846Z,1.91
2023-03-22T09:37:30.495Z,1.85
2023-03-22T09:38:25.168Z,1.84
2023-03-22T09:39:17.081Z,1.53
2023-03-22T09:40:13.299Z,1.42
2023-03-22T09:41:14.954Z,1.78
2023-03-22T09:42:24.073Z,1.78
2023-03-22T09:43:18.438Z,1.55
2023-03-22T09:44:28.280Z,1.60
2023-03-22T09:45:35.256Z,1.49
2023-03-22T09:46:39.245Z,1.55
2023-03-22T09:47:45.798Z,1.72
2023-03-22T09:48:40.655Z,1.68
2023-03-22T09:49:53.018Z,1.43
2023-03-22T09:50:51.235Z,1.61
2023-03-22T09:51:54.785Z,1.55
2023-03-22T09:52:47.375Z,1.61
2023-03-22T09:53:38.907Z,1.33
2023-03-22T09:54:37.574Z,1.29
2023-03-22T09:55:39.106Z,1.62
2023-03-22T09:56:32.176Z,1.34
2023-03-22T09:57:34.868Z,1.24
2023-03-22T09:58:50.289Z,1.31
2023-03-22T10:00:16.675Z,1.20
2023-03-22T10:01:45.440Z,1.34
2023-03-22T10:02:55.083Z,1.58
2023-03-22T10:04:17.993Z,1.67
2023-03-22T10:05:28.204Z,1.80
2023-03-22T10:06:28.212Z,1.43
2023-03-22T10:07:27.893Z,1.32
2023-03-22T10:08:49.920Z,1.52
2023-03-22T10:10:04.210Z,1.20
2023-03-22T10:10:58.149Z,1.45
2023-03-22T10:12:05.061Z,1.35
2023-03-22T10:13:13.695Z,1.35
2023-03-22T10:14:27.812Z,1.34
2023-03-22T10:15:28.518Z,1.29
2023-03-22T10:16:33.371Z,1.31
2023-03-22T10:17:28.666Z,1.38
2023-03-22T10:18:27.943Z,1.55
2023-03-22T10:19:31.499Z,1.52
2023-03-22T10:20:31.845Z,1.69
2023-03-22T10:21:24.336Z,1.39
2023-03-22T10:22:22.710Z,1.44
2023-03-22T10:23:34.087Z,1.50
2023-03-22T10:24:32.757Z,1.44
2023-03-22T10:25:36.521Z,1.68
2023-03-22T10:26:34.391Z,1.50
2023-03-22T10:27:28.851Z,1.16
2023-03-22T10:28:26.879Z,1.20
2023-03-22T10:29:28.174Z,1.45
2023-03-22T10:30:23.465Z,1.26
2023-03-22T10:31:18.027Z,1.19
2023-03-22T10:32:18.777Z,1.46
2023-03-22T10:33:43.005Z,1.56
2023-03-22T10:34:36.296Z,1.53
2023-03-22T10:35:29.516Z,1.45
2023-03-22T10:36:27.028Z,1.26
2023-03-22T10:37:31.975Z,1.30
2023-03-22T10:38:28.284Z,1.47
2023-03-22T10:39:31.681Z,1.56
2023-03-22T10:40:31.114Z,1.26
2023-03-22T10:41:26.071Z,1.43
2023-03-22T10:42:23.485Z,1.54
2023-03-22T10:43:30.346Z,1.54
2023-03-22T10:44:26.696Z,1.52
2023-03-22T10:45:20.764Z,1.57
2023-03-22T10:46:21.176Z,1.34
2023-03-22T10:47:14.867Z,1.49
2023-03-22T10:48:35.183Z,1.41
2023-03-22T10:49:38.671Z,1.46
2023-03-22T10:50:34.700Z,1.15
2023-03-22T10:51:49.309Z,1.22
2023-03-22T10:53:14.615Z,1.39
2023-03-22T10:54:12.366Z,1.38
2023-03-22T10:55:08.930Z,1.37
2023-03-22T10:56:00.732Z,1.49
2023-03-22T10:56:52.138Z,1.56
2023-03-22T10:58:12.314Z,1.41
2023-03-22T10:59:03.801Z,1.24
2023-03-22T10:59:57.179Z,1.21
2023-03-22T11:00:59.606Z,1.21
2023-03-22T11:01:51.510Z,1.34
2023-03-22T11:02:58.349Z,1.46
2023-03-22T11:03:52.773Z,1.07
2023-03-22T11:04:52.473Z,1.34
2023-03-22T11:05:58.048Z,1.28
2023-03-22T11:06:56.112Z,1.25
2023-03-22T11:07:47.936Z,1.20
2023-03-22T11:08:49.254Z,1.45
2023-03-22T11:09:41.028Z,1.57
2023-03-22T11:10:33.560Z,1.42
2023-03-22T11:11:28.764Z,1.55
2023-03-22T11:12:20.449Z,1.64
2023-03-22T11:13:19.367Z,1.63
2023-03-22T11:14:19.206Z,1.50
2023-03-22T11:15:22.958Z,1.66
2023-03-22T11:16:18.197Z,1.59
2023-03-22T11:17:14.986Z,1.57
2023-03-22T11:18:13.158Z,1.84
2023-03-22T11:19:04.974Z,1.68
2023-03-22T11:20:07.842Z,1.62
2023-03-22T11:21:05.781Z,1.49
2023-03-22T11:21:59.658Z,1.43
2023-03-22T11:22:52.175Z,1.39
2023-03-22T11:23:56.213Z,1.37
2023-03-22T11:24:48.158Z,1.48
2023-03-22T11:25:47.690Z,1.64
2023-03-22T11:26:41.533Z,1.58
2023-03-22T11:27:34.326Z,1.51
2023-03-22T11:28:37.070Z,1.30
2023-03-22T11:29:29.887Z,1.64
2023-03-22T11:30:28.506Z,1.50
2023-03-22T11:31:21.121Z,1.33
2023-03-22T11:32:28.354Z,1.22
2023-03-22T11:33:22.006Z,1.70
2023-03-22T11:34:20.212Z,1.51
2023-03-22T11:35:20.573Z,1.50
2023-03-22T11:36:18.088Z,1.57
2023-03-22T11:37:09.585Z,1.48
2023-03-22T11:38:02.317Z,1.49
2023-03-22T11:39:02.173Z,1.59
2023-03-22T11:40:01.978Z,1.23
2023-03-22T11:41:03.257Z,1.46
2023-03-22T11:42:06.481Z,1.44
2023-03-22T11:43:20.968Z,1.48
2023-03-22T11:44:16.836Z,1.35
2023-03-22T11:45:16.736Z,1.22
2023-03-22T11:46:10.814Z,1.45
2023-03-22T11:47:07.840Z,1.33
2023-03-22T11:48:09.759Z,1.75
2023-03-22T11:49:07.650Z,1.36
2023-03-22T11:50:05.467Z,1.80
2023-03-22T11:51:10.300Z,1.54
2023-03-22T11:52:10.066Z,1.80
2023-03-22T11:53:08.980Z,1.62
2023-03-22T11:54:29.453Z,1.72
2023-03-22T11:55:20.985Z,1.45
2023-03-22T11:56:17.798Z,1.40
2023-03-22T11:57:25.929Z,1.43
2023-03-22T11:58:28.814Z,1.26
2023-03-22T11:59:27.241Z,1.27
2023-03-22T12:00:30.649Z,1.33
2023-03-22T12:01:36.612Z,1.46
2023-03-22T12:02:38.768Z,1.65
2023-03-22T12:03:39.482Z,1.74
2023-03-22T12:04:38.622Z,1.84
2023-03-22T12:05:33.730Z,1.94
2023-03-22T12:06:31.998Z,1.44
2023-03-22T12:07:28.451Z,1.59
2023-03-22T12:08:37.216Z,1.57
2023-03-22T12:09:50.885Z,1.49
2023-03-22T12:10:47.200Z,1.54
2023-03-22T12:11:48.817Z,1.52
2023-03-22T12:12:51.433Z,1.41
2023-03-22T12:13:51.549Z,1.78
2023-03-22T12:15:05.128Z,1.68
2023-03-22T12:16:05.914Z,1.69
2023-03-22T12:17:16.840Z,2.00
2023-03-22T12:18:17.937Z,1.87
2023-03-22T12:19:41.966Z,1.64
2023-03-22T12:20:54.423Z,1.47
2023-03-22T12:21:49.924Z,1.61
2023-03-22T12:22:47.717Z,1.90
2023-03-22T12:23:39.484Z,1.95
2023-03-22T12:24:32.556Z,1.94
2023-03-22T12:25:35.547Z,1.61
2023-03-22T12:26:30.873Z,1.63
2023-03-22T12:27:30.633Z,1.67
2023-03-22T12:28:31.839Z,1.72
2023-03-22T12:29:27.006Z,1.59
2023-03-22T12:30:26.747Z,1.48
2023-03-22T12:31:38.975Z,1.83
2023-03-22T12:32:38.947Z,1.68
2023-03-22T12:33:42.900Z,1.74
2023-03-22T12:34:47.550Z,1.58
2023-03-22T12:35:44.475Z,1.46
2023-03-22T12:36:50.998Z,1.78
2023-03-22T12:37:47.973Z,1.75
2023-03-22T12:38:43.294Z,1.79
2023-03-22T12:39:51.796Z,1.56
2023-03-22T12:40:44.505Z,1.55
2023-03-22T12:41:42.483Z,1.62
2023-03-22T12:43:05.487Z,1.53
2023-03-22T12:44:03.098Z,1.70
2023-03-22T12:45:06.159Z,1.60
2023-03-22T12:46:01.801Z,1.44
2023-03-22T12:47:07.753Z,1.55
2023-03-22T12:48:22.032Z,1.59
2023-03-22T12:49:32.311Z,1.68
2023-03-22T12:50:36.527Z,1.58
2023-03-22T12:51:28.071Z,1.52
2023-03-22T12:52:32.016Z,1.54
2023-03-22T12:53:42.183Z,1.80
2023-03-22T12:54:34.979Z,1.45
2023-03-22T12:55:35.636Z,1.35
2023-03-22T12:56:40.097Z,1.42
2023-03-22T12:57:32.351Z,1.54
2023-03-22T12:58:27.225Z,1.65
2023-03-22T12:59:26.469Z,1.54
2023-03-22T13:00:21.187Z,1.34
2023-03-22T13:01:33.200Z,1.48
2023-03-22T13:02:34.550Z,1.58
2023-03-22T13:03:36.504Z,1.43
2023-03-22T13:04:45.524Z,1.28
2023-03-22T13:05:37.346Z,1.41
2023-03-22T13:06:55.535Z,1.39
2023-03-22T13:07:46.983Z,1.35
2023-03-22T13:09:12.864Z,1.31
2023-03-22T13:10:29.452Z,1.58
2023-03-22T13:11:24.174Z,1.31
2023-03-22T13:12:16.606Z,1.16
2023-03-22T13:13:23.647Z,1.36
2023-03-22T13:14:52.219Z,1.52
2023-03-22T13:15:55.982Z,1.23
2023-03-22T13:16:56.085Z,1.09
2023-03-22T13:17:47.721Z,1.50
2023-03-22T13:18:42.341Z,1.27
2023-03-22T13:19:37.126Z,1.24
2023-03-22T13:20:33.924Z,1.33
2023-03-22T13:21:33.295Z,1.35
2023-03-22T13:22:49.243Z,1.35
2023-03-22T13:24:01.241Z,1.40
2023-03-22T13:25:12.799Z,1.51
2023-03-22T13:26:06.259Z,1.56
2023-03-22T13:26:59.103Z,1.50
2023-03-22T13:27:59.774Z,1.46
2023-03-22T13:29:01.042Z,1.54
2023-03-22T13:30:00.215Z,1.59
2023-03-22T13:30:55.529Z,1.42
2023-03-22T13:32:29.648Z,1.68
2023-03-22T13:33:30.658Z,1.48
2023-03-22T13:34:33.003Z,1.62
2023-03-22T13:35:42.446Z,1.29
2023-03-22T13:36:37.487Z,1.82
2023-03-22T13:37:37.093Z,1.58
2023-03-22T13:38:42.185Z,1.66
2023-03-22T13:39:39.207Z,1.56
2023-03-22T13:40:39.543Z,1.50
2023-03-22T13:41:34.826Z,1.48
2023-03-22T13:42:39.304Z,1.36
2023-03-22T13:43:35.594Z,1.67
2023-03-22T13:44:38.196Z,1.57
2023-03-22T13:45:33.817Z,1.48
2023-03-22T13:46:28.594Z,1.48
2023-03-22T13:47:35.434Z,1.46
2023-03-22T13:48:47.914Z,1.23
2023-03-22T13:49:53.384Z,1.57
2023-03-22T13:50:47.475Z,1.48
2023-03-22T13:51:40.875Z,1.50
2023-03-22T13:52:54.730Z,1.39
2023-03-22T13:54:13.332Z,1.46
2023-03-22T13:55:36.352Z,1.47
2023-03-22T13:56:41.879Z,1.56
2023-03-22T13:57:50.143Z,1.59
2023-03-22T13:58:53.009Z,1.61
2023-03-22T14:00:29.265Z,1.75
2023-03-22T14:01:37.744Z,1.78
2023-03-22T14:02:37.416Z,1.62
2023-03-22T14:03:40.617Z,1.72
2023-03-22T14:04:45.461Z,1.90
2023-03-22T14:05:39.269Z,1.69
2023-03-22T14:06:38.851Z,1.79
2023-03-22T14:07:48.674Z,1.75
2023-03-22T14:08:43.679Z,1.58
2023-03-22T14:09:51.832Z,1.41
2023-03-22T14:10:51.469Z,1.33
2023-03-22T14:11:48.743Z,1.42
2023-03-22T14:12:51.766Z,1.37
2023-03-22T14:13:49.360Z,1.55
2023-03-22T14:14:47.238Z,1.47
2023-03-22T14:15:46.744Z,1.46
2023-03-22T14:16:44.426Z,1.55
2023-03-22T14:17:46.766Z,1.58
2023-03-22T14:18:44.106Z,1.56
2023-03-22T14:19:36.292Z,1.45
2023-03-22T14:20:36.823Z,1.55
2023-03-22T14:21:44.551Z,1.47
